sensor_id;sensor_type;location;lat;lon;timestamp;P1;durP1;ratioP1;P2;durP2;ratioP2
9461;SDS011;4769;42.660;23.262;2023-05-07T00:01:34;9.77;;;7.65;;
9461;SDS011;4769;42.660;23.262;2023-05-07T00:04:03;8.90;;;7.20;;
9461;SDS011;4769;42.660;23.262;2023-05-07T00:06:29;8.68;;;7.32;;
9461;SDS011;4769;42.660;23.262;2023-05-07T00:08:55;10.25;;;7.05;;
9461;SDS011;4769;42.660;23.262;2023-05-07T00:11:22;8.02;;;7.22;;
9461;SDS011;4769;42.660;23.262;2023-05-07T00:13:47;9.35;;;7.55;;
9461;SDS011;4769;42.660;23.262;2023-05-07T00:16:13;9.02;;;7.07;;
9461;SDS011;4769;42.660;23.262;2023-05-07T00:18:39;8.95;;;6.75;;
9461;SDS011;4769;42.660;23.262;2023-05-07T00:21:08;13.10;;;8.10;;
9461;SDS011;4769;42.660;23.262;2023-05-07T00:23:33;8.98;;;7.00;;
9461;SDS011;4769;42.660;23.262;2023-05-07T00:25:59;9.88;;;7.90;;
9461;SDS011;4769;42.660;23.262;2023-05-07T00:28:25;9.82;;;7.10;;
9461;SDS011;4769;42.660;23.262;2023-05-07T00:30:51;8.15;;;7.35;;
9461;SDS011;4769;42.660;23.262;2023-05-07T00:33:17;8.10;;;7.30;;
9461;SDS011;4769;42.660;23.262;2023-05-07T00:35:43;10.27;;;7.22;;
9461;SDS011;4769;42.660;23.262;2023-05-07T00:38:11;9.80;;;7.35;;
9461;SDS011;4769;42.660;23.262;2023-05-07T00:40:37;9.70;;;7.38;;
9461;SDS011;4769;42.660;23.262;2023-05-07T00:43:03;9.40;;;7.82;;
9461;SDS011;4769;42.660;23.262;2023-05-07T00:45:29;8.27;;;7.47;;
9461;SDS011;4769;42.660;23.262;2023-05-07T00:47:55;9.63;;;7.63;;
9461;SDS011;4769;42.660;23.262;2023-05-07T00:50:24;8.68;;;7.68;;
9461;SDS011;4769;42.660;23.262;2023-05-07T00:52:50;8.95;;;7.60;;
9461;SDS011;4769;42.660;23.262;2023-05-07T00:55:19;8.60;;;7.70;;
9461;SDS011;4769;42.660;23.262;2023-05-07T00:57:45;9.45;;;8.05;;
9461;SDS011;4769;42.660;23.262;2023-05-07T01:00:12;7.55;;;6.63;;
9461;SDS011;4769;42.660;23.262;2023-05-07T01:02:38;7.55;;;6.68;;
9461;SDS011;4769;42.660;23.262;2023-05-07T01:05:05;8.23;;;6.18;;
9461;SDS011;4769;42.660;23.262;2023-05-07T01:07:32;8.20;;;6.53;;
9461;SDS011;4769;42.660;23.262;2023-05-07T01:10:00;7.18;;;6.55;;
9461;SDS011;4769;42.660;23.262;2023-05-07T01:12:29;7.18;;;6.45;;
9461;SDS011;4769;42.660;23.262;2023-05-07T01:14:56;9.90;;;7.70;;
9461;SDS011;4769;42.660;23.262;2023-05-07T01:17:22;8.80;;;7.85;;
9461;SDS011;4769;42.660;23.262;2023-05-07T01:19:48;9.13;;;7.57;;
9461;SDS011;4769;42.660;23.262;2023-05-07T01:22:14;9.55;;;8.23;;
9461;SDS011;4769;42.660;23.262;2023-05-07T01:24:48;9.65;;;7.80;;
9461;SDS011;4769;42.660;23.262;2023-05-07T01:27:14;9.52;;;8.07;;
9461;SDS011;4769;42.660;23.262;2023-05-07T01:29:40;8.18;;;7.40;;
9461;SDS011;4769;42.660;23.262;2023-05-07T01:32:06;8.68;;;7.72;;
9461;SDS011;4769;42.660;23.262;2023-05-07T01:34:33;10.43;;;7.72;;
9461;SDS011;4769;42.660;23.262;2023-05-07T01:37:01;8.63;;;7.80;;
9461;SDS011;4769;42.660;23.262;2023-05-07T01:39:27;8.50;;;7.70;;
9461;SDS011;4769;42.660;23.262;2023-05-07T01:41:58;10.20;;;8.55;;
9461;SDS011;4769;42.660;23.262;2023-05-07T01:44:24;9.77;;;8.75;;
9461;SDS011;4769;42.660;23.262;2023-05-07T01:46:51;12.37;;;9.20;;
9461;SDS011;4769;42.660;23.262;2023-05-07T01:49:17;11.10;;;9.02;;
9461;SDS011;4769;42.660;23.262;2023-05-07T01:51:43;11.48;;;10.02;;
9461;SDS011;4769;42.660;23.262;2023-05-07T01:54:09;9.95;;;8.95;;
9461;SDS011;4769;42.660;23.262;2023-05-07T01:56:35;9.85;;;8.80;;
9461;SDS011;4769;42.660;23.262;2023-05-07T01:59:03;10.07;;;8.27;;
9461;SDS011;4769;42.660;23.262;2023-05-07T02:01:29;9.32;;;7.82;;
9461;SDS011;4769;42.660;23.262;2023-05-07T02:03:55;8.82;;;7.45;;
9461;SDS011;4769;42.660;23.262;2023-05-07T02:06:20;10.23;;;8.23;;
9461;SDS011;4769;42.660;23.262;2023-05-07T02:08:46;9.23;;;8.17;;
9461;SDS011;4769;42.660;23.262;2023-05-07T02:11:12;10.27;;;7.47;;
9461;SDS011;4769;42.660;23.262;2023-05-07T02:13:37;9.23;;;7.23;;
9461;SDS011;4769;42.660;23.262;2023-05-07T02:16:06;9.27;;;7.23;;
9461;SDS011;4769;42.660;23.262;2023-05-07T02:18:32;8.60;;;7.67;;
9461;SDS011;4769;42.660;23.262;2023-05-07T02:20:58;11.93;;;8.83;;
9461;SDS011;4769;42.660;23.262;2023-05-07T02:23:23;9.27;;;7.33;;
9461;SDS011;4769;42.660;23.262;2023-05-07T02:25:49;11.50;;;7.80;;
9461;SDS011;4769;42.660;23.262;2023-05-07T02:28:16;10.10;;;7.83;;
9461;SDS011;4769;42.660;23.262;2023-05-07T02:30:42;8.03;;;7.27;;
9461;SDS011;4769;42.660;23.262;2023-05-07T02:33:10;7.90;;;7.10;;
9461;SDS011;4769;42.660;23.262;2023-05-07T02:35:36;8.13;;;7.37;;
9461;SDS011;4769;42.660;23.262;2023-05-07T02:38:01;9.30;;;7.60;;
9461;SDS011;4769;42.660;23.262;2023-05-07T02:40:27;9.07;;;7.53;;
9461;SDS011;4769;42.660;23.262;2023-05-07T02:42:53;8.73;;;7.87;;
9461;SDS011;4769;42.660;23.262;2023-05-07T02:45:18;7.83;;;7.03;;
9461;SDS011;4769;42.660;23.262;2023-05-07T02:47:44;9.43;;;7.60;;
9461;SDS011;4769;42.660;23.262;2023-05-07T02:50:13;9.03;;;7.30;;
9461;SDS011;4769;42.660;23.262;2023-05-07T02:52:38;9.17;;;7.77;;
9461;SDS011;4769;42.660;23.262;2023-05-07T02:55:05;8.63;;;7.83;;
9461;SDS011;4769;42.660;23.262;2023-05-07T02:57:31;12.33;;;9.03;;
9461;SDS011;4769;42.660;23.262;2023-05-07T02:59:57;8.97;;;8.07;;
9461;SDS011;4769;42.660;23.262;2023-05-07T03:02:23;8.73;;;7.83;;
9461;SDS011;4769;42.660;23.262;2023-05-07T03:04:49;9.00;;;8.10;;
9461;SDS011;4769;42.660;23.262;2023-05-07T03:07:17;8.97;;;8.07;;
9461;SDS011;4769;42.660;23.262;2023-05-07T03:09:43;13.53;;;8.77;;
9461;SDS011;4769;42.660;23.262;2023-05-07T03:12:09;10.37;;;8.50;;
9461;SDS011;4769;42.660;23.262;2023-05-07T03:14:34;13.83;;;10.67;;
9461;SDS011;4769;42.660;23.262;2023-05-07T03:17:00;10.57;;;8.87;;
9461;SDS011;4769;42.660;23.262;2023-05-07T03:19:26;10.90;;;9.67;;
9461;SDS011;4769;42.660;23.262;2023-05-07T03:21:51;11.10;;;10.00;;
9461;SDS011;4769;42.660;23.262;2023-05-07T03:24:20;10.13;;;9.13;;
9461;SDS011;4769;42.660;23.262;2023-05-07T03:26:45;10.80;;;9.70;;
9461;SDS011;4769;42.660;23.262;2023-05-07T03:29:11;10.97;;;9.60;;
9461;SDS011;4769;42.660;23.262;2023-05-07T03:31:37;11.40;;;10.23;;
9461;SDS011;4769;42.660;23.262;2023-05-07T03:34:03;10.80;;;9.60;;
9461;SDS011;4769;42.660;23.262;2023-05-07T03:36:29;14.47;;;9.83;;
9461;SDS011;4769;42.660;23.262;2023-05-07T03:38:55;10.87;;;9.77;;
9461;SDS011;4769;42.660;23.262;2023-05-07T03:41:23;10.87;;;9.73;;
9461;SDS011;4769;42.660;23.262;2023-05-07T03:43:49;10.73;;;9.73;;
9461;SDS011;4769;42.660;23.262;2023-05-07T03:46:15;13.77;;;10.00;;
9461;SDS011;4769;42.660;23.262;2023-05-07T03:48:40;10.80;;;9.70;;
9461;SDS011;4769;42.660;23.262;2023-05-07T03:51:06;11.70;;;9.10;;
9461;SDS011;4769;42.660;23.262;2023-05-07T03:53:32;11.40;;;8.97;;
9461;SDS011;4769;42.660;23.262;2023-05-07T03:55:58;10.50;;;9.50;;
9461;SDS011;4769;42.660;23.262;2023-05-07T03:58:26;11.03;;;9.10;;
9461;SDS011;4769;42.660;23.262;2023-05-07T04:00:52;10.47;;;9.37;;
9461;SDS011;4769;42.660;23.262;2023-05-07T04:03:18;10.30;;;9.40;;
9461;SDS011;4769;42.660;23.262;2023-05-07T04:05:43;10.63;;;9.53;;
9461;SDS011;4769;42.660;23.262;2023-05-07T04:08:09;11.33;;;10.23;;
9461;SDS011;4769;42.660;23.262;2023-05-07T04:10:35;11.97;;;9.53;;
9461;SDS011;4769;42.660;23.262;2023-05-07T04:13:01;10.90;;;9.80;;
9461;SDS011;4769;42.660;23.262;2023-05-07T04:15:29;12.23;;;9.80;;
9461;SDS011;4769;42.660;23.262;2023-05-07T04:17:55;10.90;;;9.70;;
9461;SDS011;4769;42.660;23.262;2023-05-07T04:20:20;10.23;;;9.13;;
9461;SDS011;4769;42.660;23.262;2023-05-07T04:22:46;11.57;;;9.17;;
9461;SDS011;4769;42.660;23.262;2023-05-07T04:25:12;9.77;;;8.38;;
9461;SDS011;4769;42.660;23.262;2023-05-07T04:27:38;9.50;;;8.47;;
9461;SDS011;4769;42.660;23.262;2023-05-07T04:30:04;12.30;;;8.90;;
9461;SDS011;4769;42.660;23.262;2023-05-07T04:32:33;13.80;;;9.20;;
9461;SDS011;4769;42.660;23.262;2023-05-07T04:34:59;11.23;;;9.60;;
9461;SDS011;4769;42.660;23.262;2023-05-07T04:37:25;11.20;;;8.87;;
9461;SDS011;4769;42.660;23.262;2023-05-07T04:39:51;12.30;;;8.17;;
9461;SDS011;4769;42.660;23.262;2023-05-07T04:42:16;10.70;;;8.93;;
9461;SDS011;4769;42.660;23.262;2023-05-07T04:44:43;11.63;;;8.27;;
9461;SDS011;4769;42.660;23.262;2023-05-07T04:47:09;10.00;;;8.75;;
9461;SDS011;4769;42.660;23.262;2023-05-07T04:49:37;9.82;;;8.63;;
9461;SDS011;4769;42.660;23.262;2023-05-07T04:52:03;13.48;;;9.77;;
9461;SDS011;4769;42.660;23.262;2023-05-07T04:54:29;10.43;;;9.43;;
9461;SDS011;4769;42.660;23.262;2023-05-07T04:56:55;11.15;;;10.07;;
9461;SDS011;4769;42.660;23.262;2023-05-07T04:59:20;13.05;;;9.90;;
9461;SDS011;4769;42.660;23.262;2023-05-07T05:01:46;12.13;;;10.05;;
9461;SDS011;4769;42.660;23.262;2023-05-07T05:04:12;12.18;;;9.95;;
9461;SDS011;4769;42.660;23.262;2023-05-07T05:06:40;11.07;;;10.07;;
9461;SDS011;4769;42.660;23.262;2023-05-07T05:09:06;10.70;;;9.63;;
9461;SDS011;4769;42.660;23.262;2023-05-07T05:11:32;14.48;;;10.40;;
9461;SDS011;4769;42.660;23.262;2023-05-07T05:13:58;10.65;;;9.55;;
9461;SDS011;4769;42.660;23.262;2023-05-07T05:16:24;11.00;;;9.88;;
9461;SDS011;4769;42.660;23.262;2023-05-07T05:18:50;14.30;;;9.85;;
9461;SDS011;4769;42.660;23.262;2023-05-07T05:21:16;12.15;;;10.95;;
9461;SDS011;4769;42.660;23.262;2023-05-07T05:23:44;12.63;;;11.30;;
9461;SDS011;4769;42.660;23.262;2023-05-07T05:26:10;15.35;;;12.07;;
9461;SDS011;4769;42.660;23.262;2023-05-07T05:28:35;18.88;;;12.32;;
9461;SDS011;4769;42.660;23.262;2023-05-07T05:31:01;15.20;;;13.68;;
9461;SDS011;4769;42.660;23.262;2023-05-07T05:33:27;17.98;;;12.18;;
9461;SDS011;4769;42.660;23.262;2023-05-07T05:35:53;12.30;;;11.15;;
9461;SDS011;4769;42.660;23.262;2023-05-07T05:38:19;12.13;;;11.02;;
9461;SDS011;4769;42.660;23.262;2023-05-07T05:40:47;15.25;;;11.32;;
9461;SDS011;4769;42.660;23.262;2023-05-07T05:43:13;11.93;;;10.40;;
9461;SDS011;4769;42.660;23.262;2023-05-07T05:45:39;10.95;;;9.85;;
9461;SDS011;4769;42.660;23.262;2023-05-07T05:48:05;13.02;;;10.10;;
9461;SDS011;4769;42.660;23.262;2023-05-07T05:50:31;17.42;;;10.48;;
9461;SDS011;4769;42.660;23.262;2023-05-07T05:52:56;12.65;;;10.18;;
9461;SDS011;4769;42.660;23.262;2023-05-07T05:55:22;10.85;;;9.68;;
9461;SDS011;4769;42.660;23.262;2023-05-07T05:57:51;10.02;;;9.02;;
9461;SDS011;4769;42.660;23.262;2023-05-07T06:00:17;10.50;;;9.30;;
9461;SDS011;4769;42.660;23.262;2023-05-07T06:02:42;10.85;;;9.70;;
9461;SDS011;4769;42.660;23.262;2023-05-07T06:05:08;12.57;;;9.65;;
9461;SDS011;4769;42.660;23.262;2023-05-07T06:07:34;14.52;;;10.00;;
9461;SDS011;4769;42.660;23.262;2023-05-07T06:10:00;11.63;;;9.80;;
9461;SDS011;4769;42.660;23.262;2023-05-07T06:12:26;12.48;;;9.07;;
9461;SDS011;4769;42.660;23.262;2023-05-07T06:14:54;10.02;;;9.02;;
9461;SDS011;4769;42.660;23.262;2023-05-07T06:17:20;11.15;;;9.20;;
9461;SDS011;4769;42.660;23.262;2023-05-07T06:19:45;11.45;;;9.20;;
9461;SDS011;4769;42.660;23.262;2023-05-07T06:22:11;10.13;;;9.05;;
9461;SDS011;4769;42.660;23.262;2023-05-07T06:24:37;9.75;;;8.85;;
9461;SDS011;4769;42.660;23.262;2023-05-07T06:27:03;11.10;;;8.60;;
9461;SDS011;4769;42.660;23.262;2023-05-07T06:29:28;10.73;;;9.63;;
9461;SDS011;4769;42.660;23.262;2023-05-07T06:31:57;9.63;;;8.57;;
9461;SDS011;4769;42.660;23.262;2023-05-07T06:34:31;11.60;;;8.75;;
9461;SDS011;4769;42.660;23.262;2023-05-07T06:36:57;10.13;;;8.75;;
9461;SDS011;4769;42.660;23.262;2023-05-07T06:39:23;11.02;;;8.80;;
9461;SDS011;4769;42.660;23.262;2023-05-07T06:41:48;9.68;;;8.73;;
9461;SDS011;4769;42.660;23.262;2023-05-07T06:44:14;10.13;;;8.70;;
9461;SDS011;4769;42.660;23.262;2023-05-07T06:46:40;10.07;;;8.30;;
9461;SDS011;4769;42.660;23.262;2023-05-07T06:49:09;9.02;;;8.18;;
9461;SDS011;4769;42.660;23.262;2023-05-07T06:51:35;9.55;;;8.63;;
9461;SDS011;4769;42.660;23.262;2023-05-07T06:54:00;9.18;;;8.27;;
9461;SDS011;4769;42.660;23.262;2023-05-07T06:56:26;10.27;;;8.07;;
9461;SDS011;4769;42.660;23.262;2023-05-07T06:58:52;10.23;;;8.07;;
9461;SDS011;4769;42.660;23.262;2023-05-07T07:01:17;9.88;;;7.80;;
9461;SDS011;4769;42.660;23.262;2023-05-07T07:03:43;9.18;;;8.23;;
9461;SDS011;4769;42.660;23.262;2023-05-07T07:06:11;9.13;;;8.23;;
9461;SDS011;4769;42.660;23.262;2023-05-07T07:08:37;8.05;;;7.22;;
9461;SDS011;4769;42.660;23.262;2023-05-07T07:11:03;8.68;;;7.88;;
9461;SDS011;4769;42.660;23.262;2023-05-07T07:13:28;10.43;;;7.88;;
9461;SDS011;4769;42.660;23.262;2023-05-07T07:15:54;9.90;;;7.95;;
9461;SDS011;4769;42.660;23.262;2023-05-07T07:18:20;8.25;;;7.22;;
9461;SDS011;4769;42.660;23.262;2023-05-07T07:20:45;8.23;;;7.45;;
9461;SDS011;4769;42.660;23.262;2023-05-07T07:23:14;7.95;;;7.18;;
9461;SDS011;4769;42.660;23.262;2023-05-07T07:25:39;7.53;;;6.80;;
9461;SDS011;4769;42.660;23.262;2023-05-07T07:28:05;10.80;;;7.60;;
9461;SDS011;4769;42.660;23.262;2023-05-07T07:30:31;8.10;;;7.30;;
9461;SDS011;4769;42.660;23.262;2023-05-07T07:32:57;10.15;;;6.72;;
9461;SDS011;4769;42.660;23.262;2023-05-07T07:35:22;8.32;;;6.85;;
9461;SDS011;4769;42.660;23.262;2023-05-07T07:37:48;8.27;;;6.80;;
9461;SDS011;4769;42.660;23.262;2023-05-07T07:40:17;8.18;;;7.18;;
9461;SDS011;4769;42.660;23.262;2023-05-07T07:42:42;9.70;;;6.88;;
9461;SDS011;4769;42.660;23.262;2023-05-07T07:45:08;6.97;;;6.28;;
9461;SDS011;4769;42.660;23.262;2023-05-07T07:47:34;7.75;;;6.78;;
9461;SDS011;4769;42.660;23.262;2023-05-07T07:50:00;7.40;;;6.50;;
9461;SDS011;4769;42.660;23.262;2023-05-07T07:52:25;6.63;;;5.82;;
9461;SDS011;4769;42.660;23.262;2023-05-07T07:54:51;7.35;;;5.90;;
9461;SDS011;4769;42.660;23.262;2023-05-07T07:57:19;8.13;;;6.40;;
9461;SDS011;4769;42.660;23.262;2023-05-07T07:59:45;8.30;;;6.03;;
9461;SDS011;4769;42.660;23.262;2023-05-07T08:02:11;8.82;;;5.80;;
9461;SDS011;4769;42.660;23.262;2023-05-07T08:04:36;6.80;;;6.10;;
9461;SDS011;4769;42.660;23.262;2023-05-07T08:07:02;7.00;;;6.13;;
9461;SDS011;4769;42.660;23.262;2023-05-07T08:09:28;6.63;;;5.80;;
9461;SDS011;4769;42.660;23.262;2023-05-07T08:11:54;7.55;;;5.43;;
9461;SDS011;4769;42.660;23.262;2023-05-07T08:14:22;7.95;;;6.35;;
9461;SDS011;4769;42.660;23.262;2023-05-07T08:16:48;8.27;;;6.90;;
9461;SDS011;4769;42.660;23.262;2023-05-07T08:19:13;6.90;;;5.70;;
9461;SDS011;4769;42.660;23.262;2023-05-07T08:21:39;6.82;;;5.82;;
9461;SDS011;4769;42.660;23.262;2023-05-07T08:24:05;8.23;;;5.78;;
9461;SDS011;4769;42.660;23.262;2023-05-07T08:26:31;8.10;;;6.35;;
9461;SDS011;4769;42.660;23.262;2023-05-07T08:28:56;10.13;;;6.47;;
9461;SDS011;4769;42.660;23.262;2023-05-07T08:31:25;8.02;;;6.25;;
9461;SDS011;4769;42.660;23.262;2023-05-07T08:33:51;8.57;;;6.53;;
9461;SDS011;4769;42.660;23.262;2023-05-07T08:36:16;7.45;;;6.43;;
9461;SDS011;4769;42.660;23.262;2023-05-07T08:38:42;8.52;;;6.13;;
9461;SDS011;4769;42.660;23.262;2023-05-07T08:41:09;7.18;;;6.13;;
9461;SDS011;4769;42.660;23.262;2023-05-07T08:43:35;10.85;;;6.45;;
9461;SDS011;4769;42.660;23.262;2023-05-07T08:46:06;7.53;;;5.68;;
9461;SDS011;4769;42.660;23.262;2023-05-07T08:48:37;7.40;;;5.78;;
9461;SDS011;4769;42.660;23.262;2023-05-07T08:51:02;6.25;;;5.70;;
9461;SDS011;4769;42.660;23.262;2023-05-07T08:53:28;6.97;;;5.93;;
9461;SDS011;4769;42.660;23.262;2023-05-07T08:55:54;9.18;;;6.43;;
9461;SDS011;4769;42.660;23.262;2023-05-07T08:58:20;6.32;;;5.70;;
9461;SDS011;4769;42.660;23.262;2023-05-07T09:00:46;10.18;;;5.78;;
9461;SDS011;4769;42.660;23.262;2023-05-07T09:03:12;6.30;;;5.68;;
9461;SDS011;4769;42.660;23.262;2023-05-07T09:05:40;7.15;;;6.15;;
9461;SDS011;4769;42.660;23.262;2023-05-07T09:08:07;10.30;;;5.63;;
9461;SDS011;4769;42.660;23.262;2023-05-07T09:10:33;6.88;;;5.32;;
9461;SDS011;4769;42.660;23.262;2023-05-07T09:12:59;7.72;;;5.50;;
9461;SDS011;4769;42.660;23.262;2023-05-07T09:15:28;12.07;;;5.22;;
9461;SDS011;4769;42.660;23.262;2023-05-07T09:17:54;6.18;;;5.57;;
9461;SDS011;4769;42.660;23.262;2023-05-07T09:20:24;7.20;;;5.25;;
9461;SDS011;4769;42.660;23.262;2023-05-07T09:22:52;6.88;;;5.38;;
9461;SDS011;4769;42.660;23.262;2023-05-07T09:25:27;9.57;;;5.15;;
9461;SDS011;4769;42.660;23.262;2023-05-07T09:27:53;4.88;;;4.45;;
9461;SDS011;4769;42.660;23.262;2023-05-07T09:30:19;5.72;;;5.05;;
9461;SDS011;4769;42.660;23.262;2023-05-07T09:32:45;6.80;;;5.18;;
9461;SDS011;4769;42.660;23.262;2023-05-07T09:35:14;5.70;;;5.10;;
9461;SDS011;4769;42.660;23.262;2023-05-07T09:37:40;5.68;;;5.10;;
9461;SDS011;4769;42.660;23.262;2023-05-07T09:40:09;7.25;;;5.07;;
9461;SDS011;4769;42.660;23.262;2023-05-07T09:42:45;6.75;;;5.07;;
9461;SDS011;4769;42.660;23.262;2023-05-07T09:45:11;7.07;;;5.63;;
9461;SDS011;4769;42.660;23.262;2023-05-07T09:47:37;6.38;;;5.18;;
9461;SDS011;4769;42.660;23.262;2023-05-07T09:50:08;6.15;;;4.93;;
9461;SDS011;4769;42.660;23.262;2023-05-07T09:52:35;6.97;;;4.90;;
9461;SDS011;4769;42.660;23.262;2023-05-07T09:55:01;9.85;;;7.30;;
9461;SDS011;4769;42.660;23.262;2023-05-07T09:57:30;5.85;;;5.15;;
9461;SDS011;4769;42.660;23.262;2023-05-07T09:59:57;6.00;;;5.45;;
9461;SDS011;4769;42.660;23.262;2023-05-07T10:02:25;6.28;;;5.68;;
9461;SDS011;4769;42.660;23.262;2023-05-07T10:04:55;6.13;;;5.13;;
9461;SDS011;4769;42.660;23.262;2023-05-07T10:07:22;5.53;;;4.50;;
9461;SDS011;4769;42.660;23.262;2023-05-07T10:09:49;5.30;;;4.00;;
9461;SDS011;4769;42.660;23.262;2023-05-07T10:12:15;5.47;;;4.32;;
9461;SDS011;4769;42.660;23.262;2023-05-07T10:14:45;6.05;;;4.75;;
9461;SDS011;4769;42.660;23.262;2023-05-07T10:17:11;7.45;;;4.88;;
9461;SDS011;4769;42.660;23.262;2023-05-07T10:19:37;5.50;;;4.82;;
9461;SDS011;4769;42.660;23.262;2023-05-07T10:22:04;5.43;;;4.90;;
9461;SDS011;4769;42.660;23.262;2023-05-07T10:24:31;5.78;;;4.50;;
9461;SDS011;4769;42.660;23.262;2023-05-07T10:26:58;5.00;;;4.43;;
9461;SDS011;4769;42.660;23.262;2023-05-07T10:29:29;5.70;;;4.60;;
9461;SDS011;4769;42.660;23.262;2023-05-07T10:32:08;4.80;;;4.32;;
9461;SDS011;4769;42.660;23.262;2023-05-07T10:34:53;4.47;;;4.00;;
9461;SDS011;4769;42.660;23.262;2023-05-07T10:37:21;4.35;;;3.95;;
9461;SDS011;4769;42.660;23.262;2023-05-07T10:39:47;5.38;;;3.88;;
9461;SDS011;4769;42.660;23.262;2023-05-07T10:42:14;5.10;;;3.92;;
9461;SDS011;4769;42.660;23.262;2023-05-07T10:44:40;4.40;;;4.00;;
9461;SDS011;4769;42.660;23.262;2023-05-07T10:47:09;4.55;;;3.90;;
9461;SDS011;4769;42.660;23.262;2023-05-07T10:49:36;5.93;;;3.95;;
9461;SDS011;4769;42.660;23.262;2023-05-07T10:52:23;5.13;;;4.32;;
9461;SDS011;4769;42.660;23.262;2023-05-07T10:55:18;5.75;;;4.15;;
9461;SDS011;4769;42.660;23.262;2023-05-07T10:57:45;6.63;;;4.32;;
9461;SDS011;4769;42.660;23.262;2023-05-07T11:03:09;4.55;;;4.05;;
9461;SDS011;4769;42.660;23.262;2023-05-07T11:05:35;4.68;;;4.22;;
9461;SDS011;4769;42.660;23.262;2023-05-07T11:08:01;5.82;;;4.10;;
9461;SDS011;4769;42.660;23.262;2023-05-07T11:13:16;4.35;;;4.03;;
9461;SDS011;4769;42.660;23.262;2023-05-07T11:15:43;5.72;;;3.90;;
9461;SDS011;4769;42.660;23.262;2023-05-07T11:18:13;4.97;;;3.90;;
9461;SDS011;4769;42.660;23.262;2023-05-07T11:20:47;6.22;;;4.30;;
9461;SDS011;4769;42.660;23.262;2023-05-07T11:26:12;6.75;;;4.80;;
9461;SDS011;4769;42.660;23.262;2023-05-07T11:28:39;4.93;;;4.50;;
9461;SDS011;4769;42.660;23.262;2023-05-07T11:31:06;5.80;;;4.03;;
9461;SDS011;4769;42.660;23.262;2023-05-07T11:33:35;8.60;;;6.20;;
9461;SDS011;4769;42.660;23.262;2023-05-07T11:36:02;7.80;;;6.70;;
9461;SDS011;4769;42.660;23.262;2023-05-07T11:38:30;8.30;;;6.45;;
9461;SDS011;4769;42.660;23.262;2023-05-07T11:40:59;5.03;;;4.10;;
9461;SDS011;4769;42.660;23.262;2023-05-07T11:43:25;5.20;;;3.63;;
9461;SDS011;4769;42.660;23.262;2023-05-07T11:45:51;4.45;;;3.50;;
9461;SDS011;4769;42.660;23.262;2023-05-07T11:48:17;6.07;;;4.00;;
9461;SDS011;4769;42.660;23.262;2023-05-07T11:50:53;3.75;;;3.45;;
9461;SDS011;4769;42.660;23.262;2023-05-07T11:53:24;5.35;;;3.70;;
9461;SDS011;4769;42.660;23.262;2023-05-07T11:55:51;3.80;;;3.50;;
9461;SDS011;4769;42.660;23.262;2023-05-07T11:58:20;4.00;;;3.60;;
9461;SDS011;4769;42.660;23.262;2023-05-07T12:00:49;4.13;;;3.75;;
9461;SDS011;4769;42.660;23.262;2023-05-07T12:03:15;6.13;;;3.47;;
9461;SDS011;4769;42.660;23.262;2023-05-07T12:05:41;4.20;;;3.83;;
9461;SDS011;4769;42.660;23.262;2023-05-07T12:08:09;7.38;;;3.67;;
9461;SDS011;4769;42.660;23.262;2023-05-07T12:10:40;5.40;;;3.40;;
9461;SDS011;4769;42.660;23.262;2023-05-07T12:13:13;4.25;;;3.40;;
9461;SDS011;4769;42.660;23.262;2023-05-07T12:15:39;5.10;;;3.47;;
9461;SDS011;4769;42.660;23.262;2023-05-07T12:18:05;3.70;;;3.28;;
9461;SDS011;4769;42.660;23.262;2023-05-07T12:20:32;6.55;;;3.60;;
9461;SDS011;4769;42.660;23.262;2023-05-07T12:22:59;6.20;;;3.65;;
9461;SDS011;4769;42.660;23.262;2023-05-07T12:25:27;6.30;;;4.57;;
9461;SDS011;4769;42.660;23.262;2023-05-07T12:27:55;4.35;;;3.95;;
9461;SDS011;4769;42.660;23.262;2023-05-07T12:30:21;5.20;;;3.45;;
9461;SDS011;4769;42.660;23.262;2023-05-07T12:32:47;5.15;;;3.30;;
9461;SDS011;4769;42.660;23.262;2023-05-07T12:35:25;3.55;;;3.25;;
9461;SDS011;4769;42.660;23.262;2023-05-07T12:37:54;4.97;;;3.95;;
9461;SDS011;4769;42.660;23.262;2023-05-07T12:40:20;3.50;;;3.20;;
9461;SDS011;4769;42.660;23.262;2023-05-07T12:42:52;4.78;;;3.53;;
9461;SDS011;4769;42.660;23.262;2023-05-07T12:45:18;4.15;;;3.53;;
9461;SDS011;4769;42.660;23.262;2023-05-07T12:47:44;3.55;;;3.25;;
9461;SDS011;4769;42.660;23.262;2023-05-07T12:50:10;5.15;;;3.53;;
9461;SDS011;4769;42.660;23.262;2023-05-07T12:52:36;5.30;;;3.38;;
9461;SDS011;4769;42.660;23.262;2023-05-07T12:55:05;4.10;;;3.70;;
9461;SDS011;4769;42.660;23.262;2023-05-07T12:57:31;4.25;;;3.47;;
9461;SDS011;4769;42.660;23.262;2023-05-07T13:00:06;7.28;;;6.57;;
9461;SDS011;4769;42.660;23.262;2023-05-07T13:02:33;4.78;;;3.50;;
9461;SDS011;4769;42.660;23.262;2023-05-07T13:04:59;3.50;;;3.20;;
9461;SDS011;4769;42.660;23.262;2023-05-07T13:07:24;3.53;;;3.22;;
9461;SDS011;4769;42.660;23.262;2023-05-07T13:09:50;3.90;;;3.30;;
9461;SDS011;4769;42.660;23.262;2023-05-07T13:12:16;4.20;;;3.28;;
9461;SDS011;4769;42.660;23.262;2023-05-07T13:14:42;3.50;;;3.20;;
9461;SDS011;4769;42.660;23.262;2023-05-07T13:17:10;3.83;;;3.30;;
9461;SDS011;4769;42.660;23.262;2023-05-07T13:19:36;3.33;;;3.03;;
9461;SDS011;4769;42.660;23.262;2023-05-07T13:22:02;5.10;;;3.25;;
9461;SDS011;4769;42.660;23.262;2023-05-07T13:24:27;5.10;;;3.40;;
9461;SDS011;4769;42.660;23.262;2023-05-07T13:26:53;3.30;;;3.00;;
9461;SDS011;4769;42.660;23.262;2023-05-07T13:29:19;3.92;;;3.40;;
9461;SDS011;4769;42.660;23.262;2023-05-07T13:31:45;5.25;;;3.17;;
9461;SDS011;4769;42.660;23.262;2023-05-07T13:34:13;4.05;;;3.20;;
9461;SDS011;4769;42.660;23.262;2023-05-07T13:36:39;3.92;;;3.13;;
9461;SDS011;4769;42.660;23.262;2023-05-07T13:39:04;3.72;;;3.15;;
9461;SDS011;4769;42.660;23.262;2023-05-07T13:41:30;3.40;;;3.10;;
9461;SDS011;4769;42.660;23.262;2023-05-07T13:43:56;4.47;;;3.55;;
9461;SDS011;4769;42.660;23.262;2023-05-07T13:46:21;3.30;;;3.00;;
9461;SDS011;4769;42.660;23.262;2023-05-07T13:48:47;5.97;;;3.50;;
9461;SDS011;4769;42.660;23.262;2023-05-07T13:51:16;3.60;;;3.30;;
9461;SDS011;4769;42.660;23.262;2023-05-07T13:53:41;4.03;;;3.10;;
9461;SDS011;4769;42.660;23.262;2023-05-07T13:56:07;3.50;;;3.05;;
9461;SDS011;4769;42.660;23.262;2023-05-07T13:58:33;4.00;;;3.05;;
9461;SDS011;4769;42.660;23.262;2023-05-07T14:00:59;3.78;;;3.45;;
9461;SDS011;4769;42.660;23.262;2023-05-07T14:03:24;7.30;;;3.75;;
9461;SDS011;4769;42.660;23.262;2023-05-07T14:05:50;4.68;;;3.25;;
9461;SDS011;4769;42.660;23.262;2023-05-07T14:08:18;4.80;;;3.03;;
9461;SDS011;4769;42.660;23.262;2023-05-07T14:10:44;3.40;;;3.10;;
9461;SDS011;4769;42.660;23.262;2023-05-07T14:13:10;3.88;;;3.30;;
9461;SDS011;4769;42.660;23.262;2023-05-07T14:15:35;6.85;;;3.15;;
9461;SDS011;4769;42.660;23.262;2023-05-07T14:18:01;5.45;;;3.50;;
9461;SDS011;4769;42.660;23.262;2023-05-07T14:20:27;3.85;;;3.25;;
9461;SDS011;4769;42.660;23.262;2023-05-07T14:22:53;3.55;;;3.17;;
9461;SDS011;4769;42.660;23.262;2023-05-07T14:25:21;6.93;;;3.35;;
9461;SDS011;4769;42.660;23.262;2023-05-07T14:27:47;4.10;;;3.05;;
9461;SDS011;4769;42.660;23.262;2023-05-07T14:30:14;5.53;;;3.38;;
9461;SDS011;4769;42.660;23.262;2023-05-07T14:32:40;3.92;;;3.35;;
9461;SDS011;4769;42.660;23.262;2023-05-07T14:35:06;4.60;;;3.20;;
9461;SDS011;4769;42.660;23.262;2023-05-07T14:37:32;3.72;;;3.40;;
9461;SDS011;4769;42.660;23.262;2023-05-07T14:39:58;5.38;;;3.00;;
9461;SDS011;4769;42.660;23.262;2023-05-07T14:42:27;3.80;;;3.40;;
9461;SDS011;4769;42.660;23.262;2023-05-07T14:44:52;5.68;;;3.38;;
9461;SDS011;4769;42.660;23.262;2023-05-07T14:47:18;4.70;;;3.30;;
9461;SDS011;4769;42.660;23.262;2023-05-07T14:49:44;3.72;;;3.00;;
9461;SDS011;4769;42.660;23.262;2023-05-07T14:52:10;3.42;;;2.92;;
9461;SDS011;4769;42.660;23.262;2023-05-07T14:54:36;3.92;;;3.22;;
9461;SDS011;4769;42.660;23.262;2023-05-07T14:57:02;3.30;;;3.00;;
9461;SDS011;4769;42.660;23.262;2023-05-07T14:59:32;3.42;;;3.00;;
9461;SDS011;4769;42.660;23.262;2023-05-07T15:01:58;4.07;;;3.10;;